createdAt,value
2023-03-15T00:03:15.631Z,14.37
2023-03-15T00:06:37.558Z,14.38
2023-03-15T00:09:59.445Z,14.39
2023-03-15T00:13:21.397Z,14.39
2023-03-15T00:16:43.184Z,14.39
2023-03-15T00:20:06.641Z,14.40
2023-03-15T00:23:28.484Z,14.40
2023-03-15T00:26:52.860Z,14.40
2023-03-15T00:30:14.729Z,14.40
2023-03-15T00:33:36.470Z,14.40
2023-03-15T00:36:58.150Z,14.42
2023-03-15T00:40:19.962Z,14.43
2023-03-15T00:43:42.359Z,14.45
2023-03-15T00:47:04.067Z,14.43
2023-03-15T00:50:26.284Z,14.40
2023-03-15T00:53:49.605Z,14.36
2023-03-15T00:57:11.368Z,14.31
2023-03-15T01:00:33.096Z,14.28
2023-03-15T01:03:55.408Z,14.24
2023-03-15T01:07:19.072Z,14.20
2023-03-15T01:10:40.799Z,14.15
2023-03-15T01:14:05.116Z,14.11
2023-03-15T01:17:26.908Z,14.05
2023-03-15T01:20:48.641Z,14.00
2023-03-15T01:24:15.127Z,13.95
2023-03-15T01:27:36.879Z,13.88
2023-03-15T01:31:00.101Z,13.81
2023-03-15T01:34:22.119Z,13.75
2023-03-15T01:37:43.812Z,13.68
2023-03-15T01:41:05.852Z,13.62
2023-03-15T01:44:54.272Z,13.57
2023-03-15T01:48:16.330Z,13.50
2023-03-15T01:51:49.609Z,13.43
2023-03-15T01:55:17.262Z,13.37
2023-03-15T01:58:53.038Z,13.31
2023-03-15T02:02:15.397Z,13.25
2023-03-15T02:05:46.150Z,13.19
2023-03-15T02:09:14.922Z,13.13
2023-03-15T02:12:45.501Z,13.08
2023-03-15T02:16:07.908Z,13.04
2023-03-15T02:19:44.327Z,12.99
2023-03-15T02:23:09.110Z,12.95
2023-03-15T02:26:44.590Z,12.90
2023-03-15T02:30:07.865Z,12.87
2023-03-15T02:33:33.396Z,12.83
2023-03-15T02:36:55.775Z,12.79
2023-03-15T02:40:22.317Z,12.74
2023-03-15T02:43:44.268Z,12.71
2023-03-15T02:47:10.560Z,12.68
2023-03-15T02:50:32.863Z,12.64
2023-03-15T02:53:54.910Z,12.59
2023-03-15T02:57:19.621Z,12.55
2023-03-15T03:00:41.916Z,12.52
2023-03-15T03:04:03.810Z,12.48
2023-03-15T03:07:25.619Z,12.46
2023-03-15T03:10:52.311Z,12.43
2023-03-15T03:14:14.244Z,12.41
2023-03-15T03:17:37.549Z,12.38
2023-03-15T03:20:59.833Z,12.35
2023-03-15T03:24:21.917Z,12.32
2023-03-15T03:27:44.090Z,12.29
2023-03-15T03:31:06.834Z,12.27
2023-03-15T03:34:29.239Z,12.25
2023-03-15T03:37:53.924Z,12.23
2023-03-15T03:41:21.142Z,12.21
2023-03-15T03:44:43.050Z,12.19
2023-03-15T03:48:05.207Z,12.17
2023-03-15T03:51:27.740Z,12.15
2023-03-15T03:54:49.500Z,12.13
2023-03-15T03:58:11.193Z,12.12
2023-03-15T04:01:42.190Z,12.10
2023-03-15T04:05:05.944Z,12.09
2023-03-15T04:08:28.133Z,12.07
2023-03-15T04:11:50.866Z,12.05
2023-03-15T04:15:12.853Z,12.03
2023-03-15T04:18:34.886Z,12.01
2023-03-15T04:21:57.372Z,12.00
2023-03-15T04:25:58.148Z,11.98
2023-03-15T04:29:46.131Z,11.96
2023-03-15T04:33:29.021Z,11.95
2023-03-15T04:37:23.148Z,11.94
2023-03-15T04:41:11.194Z,11.92
2023-03-15T04:44:58.774Z,11.90
2023-03-15T04:48:52.943Z,11.89
2023-03-15T04:52:40.479Z,11.88
2023-03-15T04:56:20.969Z,11.87
2023-03-15T05:00:15.482Z,11.85
2023-03-15T05:04:03.258Z,11.84
2023-03-15T05:07:50.465Z,11.82
2023-03-15T05:11:47.574Z,11.81
2023-03-15T05:15:29.136Z,11.80
2023-03-15T05:19:29.200Z,11.79
2023-03-15T05:23:10.874Z,11.78
2023-03-15T05:26:58.881Z,11.78
2023-03-15T05:30:56.153Z,11.77
2023-03-15T05:34:40.895Z,11.77
2023-03-15T05:38:19.790Z,11.77
2023-03-15T05:41:59.908Z,11.77
2023-03-15T05:45:48.787Z,11.77
2023-03-15T05:49:27.178Z,11.77
2023-03-15T05:53:00.896Z,11.78
2023-03-15T05:56:31.171Z,11.79
2023-03-15T06:00:16.439Z,11.80
2023-03-15T06:03:38.154Z,11.80
2023-03-15T06:07:05.608Z,11.80
2023-03-15T06:10:27.913Z,11.82
2023-03-15T06:13:50.389Z,11.83
2023-03-15T06:17:25.448Z,11.85
2023-03-15T06:20:47.240Z,11.87
2023-03-15T06:24:09.209Z,11.88
2023-03-15T06:27:31.302Z,11.91
2023-03-15T06:30:53.583Z,11.93
2023-03-15T06:34:18.862Z,11.95
2023-03-15T06:37:42.011Z,11.98
2023-03-15T06:41:05.375Z,12.01
2023-03-15T06:44:29.390Z,12.04
2023-03-15T06:47:54.662Z,12.06
2023-03-15T06:51:18.694Z,12.09
2023-03-15T06:54:40.403Z,12.12
2023-03-15T06:58:05.268Z,12.16
2023-03-15T07:01:27.086Z,12.21
2023-03-15T07:04:49.663Z,12.27
2023-03-15T07:08:11.362Z,12.31
2023-03-15T07:11:33.543Z,12.35
2023-03-15T07:14:55.206Z,12.38
2023-03-15T07:18:16.876Z,12.44
2023-03-15T07:21:39.086Z,12.49
2023-03-15T07:25:00.851Z,12.53
2023-03-15T07:28:24.174Z,12.59
2023-03-15T07:31:45.891Z,12.70
2023-03-15T07:35:08.051Z,12.75
2023-03-15T07:38:29.969Z,12.79
2023-03-15T07:41:54.445Z,12.85
2023-03-15T07:45:27.249Z,13.01
2023-03-15T07:48:49.009Z,13.18
2023-03-15T07:52:12.824Z,13.27
2023-03-15T07:55:35.374Z,13.31
2023-03-15T07:58:59.253Z,13.35
2023-03-15T08:02:21.072Z,13.38
2023-03-15T08:05:42.784Z,13.50
2023-03-15T08:09:06.095Z,13.83
2023-03-15T08:12:27.801Z,14.48
2023-03-15T08:15:49.613Z,15.77
2023-03-15T08:19:11.454Z,16.86
2023-03-15T08:22:33.196Z,18.18
2023-03-15T08:25:54.982Z,19.61
2023-03-15T08:29:16.879Z,20.63
2023-03-15T08:32:40.442Z,21.37
2023-03-15T08:36:02.292Z,21.50
2023-03-15T08:39:24.252Z,20.93
2023-03-15T08:42:46.239Z,20.32
2023-03-15T08:46:08.201Z,19.79
2023-03-15T08:49:30.011Z,19.34
2023-03-15T08:52:51.982Z,19.09
2023-03-15T08:56:13.727Z,19.08
2023-03-15T08:59:35.429Z,19.03
2023-03-15T09:02:57.129Z,18.83
2023-03-15T09:06:18.900Z,18.74
2023-03-15T09:09:40.797Z,18.82
2023-03-15T09:13:02.912Z,18.93
2023-03-15T09:16:24.913Z,19.04
2023-03-15T09:19:46.867Z,19.09
2023-03-15T09:23:08.592Z,19.12
2023-03-15T09:26:30.908Z,19.08
2023-03-15T09:29:53.708Z,19.09
2023-03-15T09:33:15.451Z,19.18
2023-03-15T09:36:37.508Z,19.36
2023-03-15T09:39:59.441Z,19.78
2023-03-15T09:43:47.312Z,20.19
2023-03-15T09:48:01.045Z,20.53
2023-03-15T09:52:10.931Z,20.81
2023-03-15T09:55:33.278Z,21.00
2023-03-15T09:58:58.983Z,21.42
2023-03-15T10:02:30.964Z,21.86
2023-03-15T10:05:57.186Z,22.29
2023-03-15T10:09:22.799Z,23.47
2023-03-15T10:12:47.336Z,24.67
2023-03-15T10:16:18.951Z,25.30
2023-03-15T10:19:55.313Z,26.15
2023-03-15T10:23:20.996Z,26.48
2023-03-15T10:30:31.293Z,27.08
2023-03-15T10:33:56.751Z,26.77
2023-03-15T10:37:19.601Z,26.71
2023-03-15T10:40:46.982Z,27.01
2023-03-15T10:44:35.264Z,27.24
2023-03-15T10:48:00.574Z,27.45
2023-03-15T10:51:38.310Z,27.28
2023-03-15T10:55:04.667Z,26.87
2023-03-15T10:58:31.462Z,26.35
2023-03-15T11:01:56.075Z,25.89
2023-03-15T11:05:19.015Z,25.51
2023-03-15T11:08:42.041Z,25.15
2023-03-15T11:12:06.465Z,24.76
2023-03-15T11:15:32.501Z,24.44
2023-03-15T11:19:04.026Z,24.35
2023-03-15T11:22:26.517Z,24.43
2023-03-15T11:25:48.282Z,24.56
2023-03-15T11:29:34.344Z,24.80
2023-03-15T11:32:59.114Z,24.85
2023-03-15T11:36:23.682Z,24.72
2023-03-15T11:40:11.845Z,24.83
2023-03-15T11:43:45.190Z,24.98
2023-03-15T11:47:25.258Z,24.70
2023-03-15T11:50:47.017Z,24.42
2023-03-15T11:54:08.742Z,24.18
2023-03-15T11:57:40.760Z,23.92
2023-03-15T12:01:04.767Z,23.44
2023-03-15T12:04:32.098Z,22.98
2023-03-15T12:08:02.045Z,22.43
2023-03-15T12:11:23.771Z,21.94
2023-03-15T12:14:45.708Z,21.47
2023-03-15T12:18:15.253Z,21.15
2023-03-15T12:21:44.016Z,21.12
2023-03-15T12:25:14.444Z,21.16
2023-03-15T12:28:36.529Z,20.92
2023-03-15T12:32:00.200Z,20.53
2023-03-15T12:35:23.804Z,20.16
2023-03-15T12:39:01.877Z,19.77
2023-03-15T12:42:30.838Z,19.39
2023-03-15T12:45:53.028Z,19.02
2023-03-15T12:49:23.989Z,18.79
2023-03-15T12:52:47.473Z,18.59
2023-03-15T12:56:18.407Z,18.41
2023-03-15T12:59:47.212Z,18.34
2023-03-15T13:03:12.461Z,18.30
2023-03-15T13:06:46.328Z,18.22
2023-03-15T13:10:18.854Z,18.06
2023-03-15T13:14:11.921Z,17.86
2023-03-15T13:17:50.676Z,17.71
2023-03-15T13:21:31.073Z,17.61
2023-03-15T13:25:09.855Z,17.56
2023-03-15T13:28:47.757Z,17.48
2023-03-15T13:32:13.879Z,17.33
2023-03-15T13:36:04.737Z,17.08
2023-03-15T13:39:27.494Z,16.86
2023-03-15T13:42:49.630Z,16.78
2023-03-15T13:46:11.742Z,16.69
2023-03-15T13:49:34.542Z,16.59
2023-03-15T13:52:56.550Z,16.46
2023-03-15T13:56:22.647Z,16.34
2023-03-15T13:59:47.942Z,16.20
2023-03-15T14:03:15.358Z,16.05
2023-03-15T14:06:37.466Z,15.87
2023-03-15T14:10:27.465Z,15.79
2023-03-15T14:13:53.242Z,15.73
2023-03-15T14:17:29.956Z,15.71
2023-03-15T14:21:07.550Z,15.82
2023-03-15T14:24:39.362Z,15.90
2023-03-15T14:28:02.505Z,15.89
2023-03-15T14:31:27.432Z,15.84
2023-03-15T14:34:49.623Z,15.72
2023-03-15T14:38:25.962Z,15.58
2023-03-15T14:41:47.640Z,15.43
2023-03-15T14:45:09.667Z,15.32
2023-03-15T14:48:34.600Z,15.19
2023-03-15T14:52:01.083Z,15.06
2023-03-15T14:55:25.081Z,14.97
2023-03-15T14:58:46.934Z,14.84
2023-03-15T15:02:15.270Z,14.78
2023-03-15T15:05:37.387Z,14.68
2023-03-15T15:09:00.282Z,14.56
2023-03-15T15:12:22.027Z,14.45
2023-03-15T15:15:55.128Z,14.33
2023-03-15T15:19:17.461Z,14.22
2023-03-15T15:22:45.423Z,14.09
2023-03-15T15:26:15.121Z,13.94
2023-03-15T15:29:36.892Z,13.78
2023-03-15T15:32:58.670Z,13.62
2023-03-15T15:36:46.580Z,13.47
2023-03-15T15:40:16.063Z,13.32
2023-03-15T15:43:37.799Z,13.20
2023-03-15T15:47:01.145Z,13.24
2023-03-15T15:50:23.134Z,13.48
2023-03-15T15:53:45.158Z,13.71
2023-03-15T15:57:07.406Z,13.86
2023-03-15T16:00:30.228Z,13.98
2023-03-15T16:03:52.658Z,14.05
2023-03-15T16:07:16.128Z,14.09
2023-03-15T16:10:37.983Z,14.11
2023-03-15T16:14:00.148Z,14.12
2023-03-15T16:17:26.570Z,14.12
2023-03-15T16:20:50.368Z,14.11
2023-03-15T16:24:25.481Z,14.08
2023-03-15T16:27:47.274Z,14.05
2023-03-15T16:31:09.053Z,14.02
2023-03-15T16:34:34.458Z,13.97
2023-03-15T16:37:59.219Z,13.93
2023-03-15T16:41:20.926Z,13.87
2023-03-15T16:44:43.072Z,13.83
2023-03-15T16:48:05.057Z,13.78
2023-03-15T16:51:27.613Z,13.72
2023-03-15T16:54:49.451Z,13.67
2023-03-15T16:58:20.546Z,13.62
2023-03-15T17:01:43.448Z,13.57
2023-03-15T17:05:06.552Z,13.52
2023-03-15T17:08:28.968Z,13.46
2023-03-15T17:11:52.535Z,13.41
2023-03-15T17:15:14.873Z,13.35
2023-03-15T17:18:36.772Z,13.30
2023-03-15T17:21:59.292Z,13.25
2023-03-15T17:25:21.055Z,13.19
2023-03-15T17:28:43.686Z,13.14
2023-03-15T17:32:11.176Z,13.10
2023-03-15T17:35:39.021Z,13.05
2023-03-15T17:39:04.141Z,13.00
2023-03-15T17:42:26.071Z,12.96
2023-03-15T17:45:48.193Z,12.90
2023-03-15T17:49:15.057Z,12.86
2023-03-15T17:52:37.306Z,12.82
2023-03-15T17:55:59.082Z,12.77
2023-03-15T17:59:21.104Z,12.73
2023-03-15T18:02:49.849Z,12.69
2023-03-15T18:06:21.251Z,12.65
2023-03-15T18:09:43.218Z,12.61
2023-03-15T18:13:05.569Z,12.57
2023-03-15T18:16:27.597Z,12.53
2023-03-15T18:23:25.360Z,12.45
2023-03-15T18:26:47.219Z,12.41
2023-03-15T18:30:11.988Z,12.37
2023-03-15T18:33:34.120Z,12.33
2023-03-15T18:36:56.013Z,12.29
2023-03-15T18:40:19.405Z,12.25
2023-03-15T18:43:43.920Z,12.21
2023-03-15T18:47:08.018Z,12.18
2023-03-15T18:50:31.348Z,12.15
2023-03-15T18:53:53.462Z,12.11
2023-03-15T18:57:15.369Z,12.08
2023-03-15T19:00:37.864Z,12.05
2023-03-15T19:04:01.584Z,12.03
2023-03-15T19:07:23.339Z,11.99
2023-03-15T19:10:47.067Z,11.97
2023-03-15T19:14:14.416Z,11.95
2023-03-15T19:17:36.792Z,11.92
2023-03-15T19:20:58.982Z,11.90
2023-03-15T19:24:23.895Z,11.89
2023-03-15T19:27:45.712Z,11.86
2023-03-15T19:31:09.119Z,11.84
2023-03-15T19:34:31.760Z,11.80
2023-03-15T19:37:53.970Z,11.78
2023-03-15T19:41:17.892Z,11.76
2023-03-15T19:44:39.741Z,11.73
2023-03-15T19:48:01.602Z,11.70
2023-03-15T19:51:23.637Z,11.66
2023-03-15T19:54:47.157Z,11.63
2023-03-15T19:58:09.075Z,11.59
2023-03-15T20:01:32.636Z,11.56
2023-03-15T20:04:54.420Z,11.54
2023-03-15T20:08:16.230Z,11.51
2023-03-15T20:11:38.031Z,11.48
2023-03-15T20:15:02.170Z,11.45
2023-03-15T20:18:24.120Z,11.43
2023-03-15T20:21:48.271Z,11.41
2023-03-15T20:25:13.583Z,11.38
2023-03-15T20:28:35.526Z,11.34
2023-03-15T20:31:57.734Z,11.32
2023-03-15T20:35:19.572Z,11.30
2023-03-15T20:38:45.361Z,11.27
2023-03-15T20:42:07.207Z,11.24
2023-03-15T20:45:51.433Z,11.22
2023-03-15T20:49:48.119Z,11.21
2023-03-15T20:53:09.888Z,11.18
2023-03-15T20:56:33.651Z,11.17
2023-03-15T20:59:55.753Z,11.14
2023-03-15T21:03:19.352Z,11.13
2023-03-15T21:06:41.056Z,11.10
2023-03-15T21:10:04.237Z,11.09
2023-03-15T21:13:26.476Z,11.08
2023-03-15T21:16:48.145Z,11.06
2023-03-15T21:20:12.663Z,11.05
2023-03-15T21:24:08.032Z,11.03
2023-03-15T21:27:47.949Z,11.02
2023-03-15T21:31:26.565Z,11.00
2023-03-15T21:34:57.227Z,10.99
2023-03-15T21:38:22.094Z,10.98
2023-03-15T21:41:48.409Z,10.98
2023-03-15T21:45:14.956Z,10.97
2023-03-15T21:48:39.877Z,10.95
2023-03-15T21:52:03.039Z,10.94
2023-03-15T21:55:45.825Z,10.93
2023-03-15T21:59:10.928Z,10.91
2023-03-15T22:06:08.579Z,10.89
2023-03-15T22:09:32.838Z,10.87
2023-03-15T22:12:54.670Z,10.85
2023-03-15T22:16:17.734Z,10.82
2023-03-15T22:19:43.121Z,10.81
2023-03-15T22:23:05.586Z,10.79
2023-03-15T22:26:41.919Z,10.77
2023-03-15T22:30:05.699Z,10.75
2023-03-15T22:33:27.568Z,10.72
2023-03-15T22:36:49.252Z,10.71
2023-03-15T22:40:14.182Z,10.69
2023-03-15T22:43:37.160Z,10.67
2023-03-15T22:46:58.870Z,10.65
2023-03-15T22:50:21.505Z,10.63
2023-03-15T22:53:43.296Z,10.60
2023-03-15T22:57:06.309Z,10.57
2023-03-15T23:00:28.237Z,10.55
2023-03-15T23:03:50.158Z,10.53
2023-03-15T23:07:21.552Z,10.51
2023-03-15T23:10:43.360Z,10.48
2023-03-15T23:14:28.277Z,10.46
2023-03-15T23:19:09.483Z,10.44
2023-03-15T23:23:08.187Z,10.41
2023-03-15T23:26:29.992Z,10.38
2023-03-15T23:29:55.439Z,10.35
2023-03-15T23:33:18.095Z,10.32
2023-03-15T23:36:47.234Z,10.29
2023-03-15T23:40:26.929Z,10.26
2023-03-15T23:43:48.957Z,10.23
2023-03-15T23:47:12.371Z,10.20
2023-03-15T23:50:34.136Z,10.16
2023-03-15T23:53:57.894Z,10.14
2023-03-15T23:57:20.173Z,10.11
